KPAHKMKY

Guest
Details From KPAH - BARKLEY RGNL
To KMKY - Marco Island
Flight Number -
Tags decoded
Created
Modified
Stats Distance 765 nm / 1,417 km
Max Altitude 0 ft / 0 m
Waypoints 5
Social Downloads 1
Likes 0
Share VATSIM

Download

Looking for another format? Having issues loading an existing format? Contact us
Advertisement - Login to hide

Notes

Requested: KPAH CNG PIE ZEILR ZEILR3 KMKY Unmatched points: ZEILR3

Route

KPAH CNG PIE ZEILR KMKY

ID Type Via Altitude Latitude Longitude Leg Dist Tot Dist Heading (true) Name
O KPAH APT - 0 ft / 0 m 37.06032˚ -88.77288˚ - 0 nm - BARKLEY RGNL
CNG VOR - 0 ft / 0 m 37.00861˚ -88.83692˚ 4 nm 4 nm 225° / 225° CUNNINGHAM VORTAC
PIE VOR - 0 ft / 0 m 27.90778˚ -82.68431˚ 628 nm 633 nm 149° / 152° ST PETERSBURG VORTAC
ZEILR FIX - 0 ft / 0 m 26.63699˚ -82.37436˚ 78 nm 711 nm 168° / 168° -
O KMKY APT - 0 ft / 0 m 25.99504˚ -81.67253˚ 53 nm 765 nm 135° / 136° Marco Island

Altitude Profile

Advertisement - Login to hide

Weather


0- 5 10 15 20 25 30 35+ Temperature / ° C

Clouds and Precipitation
Forecast for 2017-12-18 00:00 UTC. Updated 36 minutes ago

Ground ~20,000 ft ~40,000 ft Winds

KPAH

Details ICAO KPAH (PAH)
Name BARKLEY RGNL
Region United States
Timezone America/Chicago (UTC-6.0)
Stats Elevation 410 ft / 125 m (AMSL)
Location 37.060320° -88.772883°
Runways 2
Magnetic Variation 2.426° W

METAR

KPAH 171908Z 24004KT 10SM OVC015 08/04 A3009 RMK AO2 T00830044

Decode

TAF

TAF KPAH 171720Z 1718/1818 18007KT P6SM SCT006 BKN015 TEMPO 1718/1722 4SM -DZ BR BKN006 FM180000 18004KT 3SM BR OVC005 FM180800 19003KT 1SM -DZ BR OVC003 FM181400 23006KT 4SM BR SCT005 BKN010

Decode

Departure Runways

ID Width Length Bearing (true) Bearing (mag) Surface Threshold Offset Overrun Length
04 150 ft / 46 m 6,500 ft / 1,981 m 43.57° 46.00° Asphalt 0 ft / 0 m 0 ft / 0 m
14 150 ft / 46 m 5,502 ft / 1,677 m 139.56° 141.99° Asphalt 0 ft / 0 m 0 ft / 0 m
22 150 ft / 46 m 6,500 ft / 1,981 m 223.58° 226.01° Asphalt 0 ft / 0 m 0 ft / 0 m
32 150 ft / 46 m 5,502 ft / 1,677 m 319.56° 321.99° Asphalt 0 ft / 0 m 0 ft / 0 m

KMKY

Details ICAO KMKY (MRK)
Name Marco Island
Region United States
Timezone America/New_York (UTC-5.0)
Stats Elevation 5 ft / 2 m (AMSL)
Location 25.995040° -81.672529°
Runways 1
Magnetic Variation 5.813° W

METAR

KMKY 171856Z AUTO 14011KT 10SM CLR 28/19 A3016 RMK AO2 SLP213 T02780194

Decode

TAF

Not found

Destination Runways

ID Width Length Bearing (true) Bearing (mag) Surface Threshold Offset Overrun Length
17 100 ft / 30 m 5,019 ft / 1,530 m 167.77° 173.58° Asphalt 0 ft / 0 m 0 ft / 0 m
35 100 ft / 30 m 5,019 ft / 1,530 m 347.77° 353.58° Asphalt 0 ft / 0 m 0 ft / 0 m